Weather at Bay Bridge Airport

Public forecast

Using degrees Fahrenheit for public forecast. Weather courtesy of forecast.io.

Closest aviation weather report (METAR) to Bay Bridge Airport

Closest report is Easton Airport / Newnam Field, 16.0 nm (29.6 km) SE. Retrieved 2021/03/04 00:58 UTC (2 hours ago):

KESN 040058Z 18004KT 10SM CLR 07/M03 A2992

Closest aviation forecast (TAF) to Bay Bridge Airport

Closest forecast is Baltimore/Washington International Thurgood Marshall Airport, 19.8 nm (36.7 km) NW. Retrieved 2021-03-04 00:42 UTC (2 hours ago):

TAF KBWI 032340Z 0400/0506 23005KT P6SM SKC FM040900 32007KT P6SM FEW070 FM041400 32011G19KT P6SM FEW040 FM041700 32015G25KT P6SM SCT045 FM050400 32011G21KT P6SM FEW250